createdAt,value
2022-07-28T00:01:19.910Z,6.55
2022-07-28T00:03:48.610Z,4.93
2022-07-28T00:06:17.029Z,7.15
2022-07-28T00:08:45.417Z,5.30
2022-07-28T00:11:13.569Z,6.18
2022-07-28T00:13:41.915Z,6.72
2022-07-28T00:16:10.462Z,8.65
2022-07-28T00:18:38.617Z,7.10
2022-07-28T00:21:07.167Z,7.53
2022-07-28T00:23:39.611Z,5.97
2022-07-28T00:26:09.918Z,6.15
2022-07-28T00:28:38.333Z,6.65
2022-07-28T00:31:11.132Z,7.70
2022-07-28T00:33:40.982Z,8.40
2022-07-28T00:36:11.891Z,5.63
2022-07-28T00:38:44.094Z,9.63
2022-07-28T00:41:13.503Z,6.97
2022-07-28T00:43:50.113Z,6.78
2022-07-28T00:46:21.180Z,7.38
2022-07-28T00:48:55.264Z,10.25
2022-07-28T00:51:25.782Z,8.00
2022-07-28T00:53:55.961Z,6.05
2022-07-28T00:56:24.581Z,6.80
2022-07-28T00:58:53.136Z,8.75
2022-07-28T01:01:22.064Z,6.63
2022-07-28T01:03:56.476Z,5.32
2022-07-28T01:06:43.077Z,8.05
2022-07-28T01:09:57.966Z,8.57
2022-07-28T01:12:47.257Z,8.52
2022-07-28T01:15:41.409Z,13.00
2022-07-28T01:18:20.895Z,11.90
2022-07-28T01:20:54.251Z,8.85
2022-07-28T01:23:35.013Z,9.85
2022-07-28T01:26:16.979Z,11.73
2022-07-28T01:28:51.259Z,11.52
2022-07-28T01:31:26.539Z,11.32
2022-07-28T01:34:09.846Z,12.50
2022-07-28T01:36:45.939Z,9.48
2022-07-28T01:39:15.702Z,7.63
2022-07-28T01:41:45.949Z,11.90
2022-07-28T01:44:22.279Z,14.05
2022-07-28T01:46:55.659Z,6.40
2022-07-28T01:49:26.910Z,6.35
2022-07-28T01:51:57.557Z,6.53
2022-07-28T01:54:28.007Z,5.65
2022-07-28T01:56:58.066Z,7.25
2022-07-28T01:59:29.348Z,8.85
2022-07-28T02:02:01.769Z,8.77
2022-07-28T02:04:31.867Z,9.23
2022-07-28T02:07:01.749Z,10.35
2022-07-28T02:09:31.430Z,13.35
2022-07-28T02:12:01.440Z,10.65
2022-07-28T02:14:30.857Z,13.30
2022-07-28T02:17:03.922Z,13.10
2022-07-28T02:19:33.660Z,15.65
2022-07-28T02:22:03.974Z,10.48
2022-07-28T02:24:34.166Z,11.20
2022-07-28T02:27:16.825Z,11.30
2022-07-28T02:29:51.272Z,10.45
2022-07-28T02:32:37.921Z,11.38
2022-07-28T02:35:22.692Z,9.00
2022-07-28T02:38:07.075Z,9.90
2022-07-28T02:40:38.363Z,8.18
2022-07-28T02:43:11.870Z,7.90
2022-07-28T02:45:45.040Z,10.43
2022-07-28T02:48:17.537Z,11.88
2022-07-28T02:50:47.059Z,10.77
2022-07-28T02:53:17.422Z,9.95
2022-07-28T02:55:48.184Z,10.35
2022-07-28T02:58:22.072Z,8.45
2022-07-28T03:00:52.137Z,8.07
2022-07-28T03:03:21.179Z,8.35
2022-07-28T03:05:50.016Z,9.65
2022-07-28T03:08:18.714Z,9.25
2022-07-28T03:10:46.905Z,8.07
2022-07-28T03:13:15.348Z,9.55
2022-07-28T03:15:43.703Z,11.23
2022-07-28T03:18:11.945Z,11.68
2022-07-28T03:20:40.268Z,8.93
2022-07-28T03:23:08.601Z,10.18
2022-07-28T03:25:51.176Z,11.57
2022-07-28T03:28:22.004Z,9.85
2022-07-28T03:31:05.283Z,6.75
2022-07-28T03:33:34.335Z,7.22
2022-07-28T03:36:08.364Z,7.25
2022-07-28T03:39:15.252Z,10.05
2022-07-28T03:41:46.068Z,9.07
2022-07-28T03:44:15.332Z,6.93
2022-07-28T03:46:56.653Z,10.18
2022-07-28T03:49:24.898Z,8.15
2022-07-28T03:51:53.023Z,8.75
2022-07-28T03:54:21.419Z,8.35
2022-07-28T03:56:49.701Z,8.98
2022-07-28T03:59:17.866Z,12.50
2022-07-28T04:01:46.408Z,5.97
2022-07-28T04:04:15.156Z,7.78
2022-07-28T04:06:43.701Z,6.60
2022-07-28T04:09:11.933Z,6.60
2022-07-28T04:11:40.356Z,6.35
2022-07-28T04:14:12.028Z,8.38
2022-07-28T04:16:43.080Z,8.98
2022-07-28T04:19:11.491Z,7.78
2022-07-28T04:21:39.612Z,7.57
2022-07-28T04:24:10.759Z,9.65
2022-07-28T04:26:39.363Z,10.55
2022-07-28T04:29:07.529Z,11.23
2022-07-28T04:31:35.803Z,8.55
2022-07-28T04:34:04.062Z,7.38
2022-07-28T04:36:32.371Z,5.78
2022-07-28T04:39:00.659Z,7.28
2022-07-28T04:41:28.869Z,6.78
2022-07-28T04:43:57.198Z,6.68
2022-07-28T04:46:25.580Z,5.95
2022-07-28T04:48:54.054Z,7.72
2022-07-28T04:51:22.344Z,8.07
2022-07-28T04:53:50.559Z,7.68
2022-07-28T04:56:18.954Z,7.68
2022-07-28T04:58:47.304Z,6.95
2022-07-28T05:03:37.428Z,6.38
2022-07-28T05:06:05.930Z,6.45
2022-07-28T05:08:34.117Z,7.90
2022-07-28T05:11:02.497Z,10.00
2022-07-28T05:13:33.970Z,11.98
2022-07-28T05:16:03.787Z,14.30
2022-07-28T05:18:32.194Z,12.38
2022-07-28T05:21:00.429Z,13.43
2022-07-28T05:23:28.697Z,13.93
2022-07-28T05:25:56.955Z,12.38
2022-07-28T05:28:25.309Z,9.82
2022-07-28T05:30:53.875Z,9.75
2022-07-28T05:33:22.174Z,8.05
2022-07-28T05:35:55.861Z,7.18
2022-07-28T05:38:24.807Z,6.88
2022-07-28T05:40:53.307Z,7.65
2022-07-28T05:43:21.883Z,6.45
2022-07-28T05:45:50.321Z,6.53
2022-07-28T05:48:20.284Z,7.30
2022-07-28T05:50:52.004Z,9.73
2022-07-28T05:53:20.356Z,15.57
2022-07-28T05:55:59.689Z,15.05
2022-07-28T05:58:30.959Z,11.82
2022-07-28T06:01:00.716Z,8.35
2022-07-28T06:03:30.379Z,7.10
2022-07-28T06:06:15.098Z,6.13
2022-07-28T06:08:46.202Z,6.93
2022-07-28T06:11:20.468Z,6.65
2022-07-28T06:13:52.254Z,6.70
2022-07-28T06:16:21.627Z,6.55
2022-07-28T06:18:50.984Z,6.25
2022-07-28T06:21:19.195Z,6.30
2022-07-28T06:23:47.570Z,6.43
2022-07-28T06:26:15.814Z,8.80
2022-07-28T06:28:44.283Z,9.82
2022-07-28T06:31:12.789Z,7.97
2022-07-28T06:33:41.301Z,7.80
2022-07-28T06:36:09.746Z,8.35
2022-07-28T06:38:38.093Z,7.75
2022-07-28T06:41:06.483Z,6.80
2022-07-28T06:43:38.811Z,6.32
2022-07-28T06:46:08.261Z,6.97
2022-07-28T06:48:37.030Z,7.35
2022-07-28T06:51:06.305Z,8.48
2022-07-28T06:53:34.681Z,7.78
2022-07-28T06:56:05.327Z,7.82
2022-07-28T06:58:33.810Z,6.85
2022-07-28T07:01:02.419Z,7.45
2022-07-28T07:03:30.645Z,8.02
2022-07-28T07:05:59.082Z,7.07
2022-07-28T07:08:27.501Z,7.72
2022-07-28T07:10:55.938Z,7.05
2022-07-28T07:13:24.527Z,8.13
2022-07-28T07:15:52.844Z,7.95
2022-07-28T07:18:21.353Z,7.82
2022-07-28T07:20:49.596Z,8.30
2022-07-28T07:23:17.707Z,7.57
2022-07-28T07:25:46.084Z,8.95
2022-07-28T07:28:14.178Z,10.32
2022-07-28T07:30:42.437Z,10.35
2022-07-28T07:33:10.932Z,7.38
2022-07-28T07:35:39.518Z,6.75
2022-07-28T07:38:07.742Z,6.38
2022-07-28T07:40:36.210Z,6.82
2022-07-28T07:43:04.766Z,8.25
2022-07-28T07:45:33.302Z,7.38
2022-07-28T07:48:03.423Z,6.88
2022-07-28T07:50:31.673Z,6.57
2022-07-28T07:53:00.028Z,7.15
2022-07-28T07:55:29.293Z,8.20
2022-07-28T07:58:06.294Z,7.82
2022-07-28T08:00:34.668Z,7.20
2022-07-28T08:03:03.368Z,6.88
2022-07-28T08:05:34.917Z,7.75
2022-07-28T08:08:05.685Z,8.23
2022-07-28T08:10:35.233Z,5.70
2022-07-28T08:13:04.878Z,8.48
2022-07-28T08:15:33.716Z,9.48
2022-07-28T08:18:03.268Z,7.47
2022-07-28T08:20:31.509Z,7.57
2022-07-28T08:22:59.793Z,7.97
2022-07-28T08:25:29.313Z,9.35
2022-07-28T08:27:57.637Z,9.18
2022-07-28T08:30:30.280Z,7.60
2022-07-28T08:33:01.501Z,6.82
2022-07-28T08:35:33.777Z,8.98
2022-07-28T08:38:06.921Z,4.80
2022-07-28T08:43:23.539Z,6.78
2022-07-28T08:45:58.132Z,7.25
2022-07-28T08:48:32.845Z,7.55
2022-07-28T08:51:07.238Z,9.13
2022-07-28T08:53:39.954Z,10.75
2022-07-28T08:56:17.938Z,9.68
2022-07-28T08:58:46.293Z,9.40
2022-07-28T09:01:14.502Z,8.40
2022-07-28T09:03:45.082Z,7.65
2022-07-28T09:06:14.006Z,7.88
2022-07-28T09:08:43.731Z,8.57
2022-07-28T09:11:12.253Z,8.93
2022-07-28T09:13:40.598Z,6.95
2022-07-28T09:16:09.021Z,9.43
2022-07-28T09:18:37.618Z,7.32
2022-07-28T09:21:05.745Z,6.95
2022-07-28T09:23:45.172Z,8.07
2022-07-28T09:26:15.282Z,7.65
2022-07-28T09:29:01.014Z,6.80
2022-07-28T09:31:30.689Z,6.35
2022-07-28T09:34:06.341Z,6.20
2022-07-28T09:36:41.659Z,6.28
2022-07-28T09:39:10.205Z,7.80
2022-07-28T09:41:57.607Z,7.15
2022-07-28T09:44:26.845Z,6.03
2022-07-28T09:46:58.620Z,7.22
2022-07-28T09:49:43.563Z,5.47
2022-07-28T09:52:13.260Z,6.53
2022-07-28T09:55:01.127Z,5.70
2022-07-28T09:57:30.896Z,7.63
2022-07-28T10:00:00.328Z,6.07
2022-07-28T10:02:40.106Z,5.95
2022-07-28T10:05:09.166Z,6.25
2022-07-28T10:07:51.373Z,6.05
2022-07-28T10:10:22.379Z,6.15
2022-07-28T10:12:50.630Z,6.43
2022-07-28T10:15:21.235Z,6.57
2022-07-28T10:17:59.761Z,7.28
2022-07-28T10:20:33.748Z,8.80
2022-07-28T10:23:11.689Z,6.03
2022-07-28T10:25:41.879Z,6.47
2022-07-28T10:28:12.702Z,5.05
2022-07-28T10:30:41.932Z,6.68
2022-07-28T10:33:15.488Z,4.95
2022-07-28T10:35:54.472Z,7.50
2022-07-28T10:38:28.032Z,6.07
2022-07-28T10:40:58.971Z,7.97
2022-07-28T10:43:29.503Z,6.68
2022-07-28T10:46:08.898Z,5.78
2022-07-28T10:48:39.402Z,7.40
2022-07-28T10:51:08.376Z,7.70
2022-07-28T10:53:46.633Z,6.00
2022-07-28T10:56:28.483Z,5.95
2022-07-28T11:01:57.499Z,6.78
2022-07-28T11:04:51.915Z,6.80
2022-07-28T11:07:20.390Z,5.22
2022-07-28T11:09:49.060Z,6.55
2022-07-28T11:12:37.476Z,6.43
2022-07-28T11:15:36.148Z,6.45
2022-07-28T11:18:11.432Z,6.88
2022-07-28T11:21:01.280Z,8.57
2022-07-28T11:23:55.966Z,6.22
2022-07-28T11:26:24.243Z,7.07
2022-07-28T11:28:58.723Z,7.40
2022-07-28T11:31:45.382Z,5.43
2022-07-28T11:34:21.911Z,6.68
2022-07-28T11:37:09.546Z,6.22
2022-07-28T11:39:44.243Z,7.25
2022-07-28T11:42:28.104Z,6.43
2022-07-28T11:44:58.032Z,6.32
2022-07-28T11:47:26.895Z,7.75
2022-07-28T11:50:14.364Z,5.10
2022-07-28T11:53:02.909Z,6.90
2022-07-28T11:55:49.333Z,6.15
2022-07-28T11:58:27.677Z,6.55
2022-07-28T12:01:20.083Z,6.88
2022-07-28T12:03:55.040Z,5.85
2022-07-28T12:06:28.561Z,5.15
2022-07-28T12:09:01.396Z,5.80
2022-07-28T12:11:38.736Z,4.75
2022-07-28T12:14:13.399Z,5.45
2022-07-28T12:16:45.375Z,4.35
2022-07-28T12:19:18.676Z,6.22
2022-07-28T12:21:49.567Z,6.07
2022-07-28T12:24:29.566Z,6.15
2022-07-28T12:26:59.290Z,6.70
2022-07-28T12:29:32.048Z,7.75
2022-07-28T12:32:07.250Z,6.40
2022-07-28T12:34:36.638Z,7.35
2022-07-28T12:37:07.834Z,9.52
2022-07-28T12:39:36.623Z,6.45
2022-07-28T12:42:06.952Z,7.55
2022-07-28T12:44:42.945Z,5.57
2022-07-28T12:47:13.248Z,6.25
2022-07-28T12:49:44.521Z,5.45
2022-07-28T12:52:26.194Z,5.13
2022-07-28T12:54:56.653Z,5.85
2022-07-28T12:57:49.961Z,5.75
2022-07-28T13:00:28.467Z,5.68
2022-07-28T13:02:58.750Z,5.80
2022-07-28T13:05:34.257Z,6.85
2022-07-28T13:08:05.049Z,6.05
2022-07-28T13:10:34.771Z,6.53
2022-07-28T13:13:08.017Z,6.68
2022-07-28T13:15:36.408Z,5.78
2022-07-28T13:18:04.695Z,4.55
2022-07-28T13:20:47.395Z,6.72
2022-07-28T13:23:15.645Z,7.18
2022-07-28T13:25:44.131Z,5.70
2022-07-28T13:28:28.489Z,7.47
2022-07-28T13:30:56.804Z,7.32
2022-07-28T13:33:25.272Z,6.00
2022-07-28T13:35:54.093Z,6.93
2022-07-28T13:38:22.410Z,5.00
2022-07-28T13:40:50.705Z,6.38
2022-07-28T13:43:19.034Z,7.57
2022-07-28T13:45:49.031Z,7.43
2022-07-28T13:48:17.378Z,6.20
2022-07-28T13:50:45.589Z,10.27
2022-07-28T13:53:32.489Z,6.32
2022-07-28T13:56:01.060Z,6.47
2022-07-28T13:58:29.301Z,10.15
2022-07-28T14:00:58.602Z,6.55
2022-07-28T14:03:27.435Z,7.45
2022-07-28T14:05:56.068Z,8.05
2022-07-28T14:08:25.395Z,5.78
2022-07-28T14:10:55.720Z,6.82
2022-07-28T14:13:23.972Z,6.38
2022-07-28T14:16:02.607Z,6.82
2022-07-28T14:18:35.175Z,7.28
2022-07-28T14:21:03.493Z,5.47
2022-07-28T14:23:32.403Z,6.10
2022-07-28T14:26:25.414Z,7.78
2022-07-28T14:28:48.930Z,9.13
2022-07-28T14:31:17.182Z,11.07
2022-07-28T14:33:52.283Z,12.80
2022-07-28T14:36:22.790Z,12.27
2022-07-28T14:38:53.609Z,10.88
2022-07-28T14:41:22.784Z,6.05
2022-07-28T14:43:50.945Z,6.90
2022-07-28T14:46:21.580Z,7.13
2022-07-28T14:48:50.525Z,6.17
2022-07-28T14:51:19.319Z,6.53
2022-07-28T14:53:49.825Z,5.57
2022-07-28T14:56:20.291Z,6.50
2022-07-28T14:58:48.546Z,5.88
2022-07-28T15:01:16.932Z,5.30
2022-07-28T15:03:45.070Z,6.20
2022-07-28T15:06:13.408Z,7.00
2022-07-28T15:08:41.671Z,8.18
2022-07-28T15:11:09.916Z,6.28
2022-07-28T15:13:38.281Z,6.95
2022-07-28T15:16:07.353Z,7.35
2022-07-28T15:18:35.839Z,8.65
2022-07-28T15:21:04.337Z,7.10
2022-07-28T15:23:32.646Z,7.25
2022-07-28T15:26:01.098Z,5.53
2022-07-28T15:28:29.333Z,12.38
2022-07-28T15:31:00.456Z,10.95
2022-07-28T15:33:28.794Z,7.45
2022-07-28T15:36:00.778Z,7.47
2022-07-28T15:38:31.944Z,11.90
2022-07-28T15:41:00.418Z,8.43
2022-07-28T15:43:30.168Z,7.22
2022-07-28T15:45:58.517Z,7.45
2022-07-28T15:48:26.787Z,5.75
2022-07-28T15:50:55.042Z,5.63
2022-07-28T15:53:23.360Z,7.38
2022-07-28T15:55:52.160Z,9.10
2022-07-28T15:58:22.244Z,6.40
2022-07-28T16:00:51.392Z,10.20
2022-07-28T16:03:20.585Z,7.50
2022-07-28T16:05:49.094Z,8.88
2022-07-28T16:08:22.362Z,9.75
2022-07-28T16:10:52.535Z,7.10
2022-07-28T16:13:35.906Z,6.60
2022-07-28T16:16:16.129Z,8.82
2022-07-28T16:18:48.011Z,7.22
2022-07-28T16:21:16.388Z,11.73
2022-07-28T16:23:44.616Z,9.50
2022-07-28T16:26:12.867Z,7.55
2022-07-28T16:28:41.162Z,9.10
2022-07-28T16:31:09.352Z,7.15
2022-07-28T16:33:38.728Z,7.93
2022-07-28T16:36:07.029Z,7.72
2022-07-28T16:38:35.306Z,9.20
2022-07-28T16:41:03.732Z,7.45
2022-07-28T16:43:32.882Z,6.68
2022-07-28T16:46:01.222Z,8.07
2022-07-28T16:48:29.687Z,7.72
2022-07-28T16:50:58.127Z,8.20
2022-07-28T16:53:26.363Z,8.27
2022-07-28T16:55:54.568Z,7.40
2022-07-28T16:58:23.139Z,7.65
2022-07-28T17:00:52.479Z,6.70
2022-07-28T17:03:20.731Z,6.05
2022-07-28T17:05:49.123Z,8.23
2022-07-28T17:08:17.351Z,8.73
2022-07-28T17:10:46.622Z,9.75
2022-07-28T17:13:14.998Z,9.00
2022-07-28T17:15:43.164Z,7.75
2022-07-28T17:18:12.286Z,6.85
2022-07-28T17:20:41.653Z,7.75
2022-07-28T17:23:10.208Z,7.10
2022-07-28T17:28:27.068Z,7.07
2022-07-28T17:30:55.283Z,9.50
2022-07-28T17:33:23.808Z,8.88
2022-07-28T17:35:52.211Z,6.68
2022-07-28T17:38:20.511Z,7.82
2022-07-28T17:40:48.856Z,7.65
2022-07-28T17:43:17.744Z,8.32
2022-07-28T17:45:46.737Z,7.28
2022-07-28T17:48:14.982Z,6.53
2022-07-28T17:50:43.677Z,8.18
2022-07-28T17:53:12.063Z,7.68
2022-07-28T17:56:00.366Z,4.85
2022-07-28T17:58:30.573Z,7.10
2022-07-28T18:01:10.990Z,7.30
2022-07-28T18:03:57.021Z,8.15
2022-07-28T18:06:36.772Z,8.15
2022-07-28T18:09:09.050Z,7.32
2022-07-28T18:11:56.486Z,21.35
2022-07-28T18:14:28.274Z,33.60
2022-07-28T18:16:57.694Z,11.45
2022-07-28T18:19:29.687Z,10.48
2022-07-28T18:24:26.176Z,34.50
2022-07-28T18:26:54.720Z,39.08
2022-07-28T18:29:23.324Z,36.17
2022-07-28T18:31:52.368Z,37.38
2022-07-28T18:34:24.830Z,31.65
2022-07-28T18:36:54.401Z,28.58
2022-07-28T18:39:22.690Z,25.10
2022-07-28T18:41:50.948Z,18.85
2022-07-28T18:44:20.259Z,30.48
2022-07-28T18:46:49.001Z,16.88
2022-07-28T18:49:17.400Z,14.70
2022-07-28T18:51:46.012Z,12.15
2022-07-28T18:54:24.847Z,10.57
2022-07-28T18:56:57.416Z,13.23
2022-07-28T18:59:26.119Z,10.60
2022-07-28T19:01:54.663Z,12.07
2022-07-28T19:04:23.213Z,10.95
2022-07-28T19:06:51.628Z,11.40
2022-07-28T19:09:20.282Z,10.88
2022-07-28T19:11:48.780Z,9.65
2022-07-28T19:14:17.886Z,9.68
2022-07-28T19:16:46.625Z,13.80
2022-07-28T19:19:14.993Z,12.48
2022-07-28T19:21:43.840Z,12.43
2022-07-28T19:24:14.211Z,14.63
2022-07-28T19:26:44.906Z,8.90
2022-07-28T19:29:13.444Z,12.23
2022-07-28T19:31:41.847Z,17.17
2022-07-28T19:34:10.675Z,12.15
2022-07-28T19:36:39.437Z,11.52
2022-07-28T19:39:08.075Z,13.55
2022-07-28T19:41:36.437Z,14.38
2022-07-28T19:44:04.856Z,12.80
2022-07-28T19:46:33.345Z,14.15
2022-07-28T19:49:01.845Z,14.70
2022-07-28T19:51:31.573Z,15.63
2022-07-28T19:54:00.105Z,13.05
2022-07-28T19:56:31.416Z,14.52
2022-07-28T19:59:00.312Z,15.88
2022-07-28T20:01:28.762Z,14.40
2022-07-28T20:04:01.980Z,14.73
2022-07-28T20:06:33.498Z,17.08
2022-07-28T20:09:05.837Z,15.38
2022-07-28T20:11:34.464Z,12.85
2022-07-28T20:14:03.123Z,11.25
2022-07-28T20:16:31.724Z,12.57
2022-07-28T20:19:00.069Z,12.07
2022-07-28T20:21:28.373Z,12.65
2022-07-28T20:23:57.820Z,14.00
2022-07-28T20:26:27.089Z,13.25
2022-07-28T20:28:57.108Z,13.07
2022-07-28T20:31:25.623Z,13.65
2022-07-28T20:33:53.881Z,13.07
2022-07-28T20:36:25.109Z,13.80
2022-07-28T20:38:57.553Z,16.42
2022-07-28T20:41:26.318Z,14.48
2022-07-28T20:44:26.059Z,16.50
2022-07-28T20:46:43.616Z,13.55
2022-07-28T20:49:11.969Z,13.23
2022-07-28T20:51:40.340Z,16.05
2022-07-28T20:54:19.269Z,27.58
2022-07-28T20:56:47.752Z,30.50
2022-07-28T20:59:16.226Z,20.42
2022-07-28T21:01:44.600Z,16.15
2022-07-28T21:04:13.387Z,13.05
2022-07-28T21:06:51.206Z,14.45
2022-07-28T21:09:21.279Z,15.85
2022-07-28T21:11:49.505Z,16.50
2022-07-28T21:14:18.063Z,19.85
2022-07-28T21:16:46.781Z,17.15
2022-07-28T21:19:15.231Z,16.42
2022-07-28T21:21:43.335Z,16.42
2022-07-28T21:24:11.660Z,18.50
2022-07-28T21:26:42.411Z,15.52
2022-07-28T21:29:12.361Z,16.95
2022-07-28T21:32:04.930Z,20.98
2022-07-28T21:34:31.556Z,17.40
2022-07-28T21:37:04.138Z,11.98
2022-07-28T21:39:33.494Z,16.58
2022-07-28T21:42:02.888Z,20.00
2022-07-28T21:44:34.165Z,18.83
2022-07-28T21:47:02.419Z,20.38
2022-07-28T21:49:30.644Z,18.30
2022-07-28T21:51:59.046Z,19.25
2022-07-28T21:54:28.102Z,17.33
2022-07-28T21:56:56.406Z,17.98
2022-07-28T21:59:24.721Z,13.63
2022-07-28T22:01:53.259Z,13.38
2022-07-28T22:04:21.909Z,11.38
2022-07-28T22:06:50.314Z,16.13
2022-07-28T22:09:18.707Z,13.32
2022-07-28T22:11:47.325Z,11.32
2022-07-28T22:14:15.662Z,10.88
2022-07-28T22:16:44.389Z,10.95
2022-07-28T22:19:12.646Z,12.15
2022-07-28T22:21:40.766Z,12.77
2022-07-28T22:24:09.520Z,13.57
2022-07-28T22:26:37.697Z,15.73
2022-07-28T22:29:06.058Z,12.38
2022-07-28T22:31:34.477Z,10.23
2022-07-28T22:34:02.839Z,9.77
2022-07-28T22:36:31.067Z,10.65
2022-07-28T22:38:59.451Z,11.15
2022-07-28T22:41:27.704Z,11.05
2022-07-28T22:43:56.504Z,12.20
2022-07-28T22:46:24.813Z,12.05
2022-07-28T22:48:53.149Z,14.23
2022-07-28T22:51:21.617Z,13.50
2022-07-28T22:53:50.066Z,13.73
2022-07-28T22:56:18.405Z,13.50
2022-07-28T22:58:46.674Z,14.27
2022-07-28T23:01:15.108Z,17.23
2022-07-28T23:03:45.022Z,23.83
2022-07-28T23:06:15.764Z,18.52
2022-07-28T23:08:44.433Z,13.63
2022-07-28T23:11:12.596Z,9.35
2022-07-28T23:13:41.009Z,10.68
2022-07-28T23:16:13.589Z,11.60
2022-07-28T23:18:42.447Z,12.80
2022-07-28T23:21:11.538Z,10.15
2022-07-28T23:23:39.979Z,10.52
2022-07-28T23:26:08.193Z,9.73
2022-07-28T23:28:36.537Z,9.50
2022-07-28T23:31:05.789Z,8.38
2022-07-28T23:33:55.216Z,8.90
2022-07-28T23:36:26.800Z,10.30
2022-07-28T23:38:58.740Z,11.52
2022-07-28T23:41:28.970Z,12.40
2022-07-28T23:43:57.285Z,12.90
2022-07-28T23:46:25.771Z,15.27
2022-07-28T23:48:54.303Z,17.17
2022-07-28T23:51:22.677Z,17.15
2022-07-28T23:54:10.902Z,10.55
2022-07-28T23:56:43.685Z,8.43
2022-07-28T23:59:14.342Z,10.90
